Terminal Aerodrome Forecast
Issued by NWS Mt. Holly, NJ

Home | Current Version | Previous Version | Text Only | Print | Product List | Glossary On
Versions: 1 2 3 4 5 6 7 8 9 10 11 12 13 14 15 16 17 18 19 20 21 22 23 24 25 26 27 28 29 30 31 32 33 34
445
FTUS41 KPHI 230032 AAA
TAFPHL
TAF AMD
KPHL 230032Z 2301/2406 06012KT 4SM -RADZ BR OVC007
     FM230400 05016G26KT 2SM -RADZ BR OVC004
     FM230700 05022G30KT 1SM -RADZ BR OVC003
     FM231100 06025G35KT 2SM RA BR OVC006
     FM240400 01020G30KT 4SM -RA BR OVC005=

USA.gov is the U.S. government's official web portal to all federal, state and local government web resources and services.